Time;durP1;ratioP1;P1;durP2;ratioP2;P2;SDS_P1;SDS_P2;PMS_P1;PMS_P2;Temp;Humidity;BMP_temperature;BMP_pressure;BME280_temperature;BME280_humidity;BME280_pressure;Samples;Min_cycle;Max_cycle;Signal;HPM_P1;HPM_P2
2022/03/21 00:01:00;;;;;;;11.82;6.32;;;8.30;26.70;;;;;;4954133;29;20112;-74
2022/03/21 00:03:30;;;;;;;11.13;6.15;;;8.20;26.70;;;;;;4955834;28;20115;-74
2022/03/21 00:05:57;;;;;;;9.23;5.90;;;8.20;26.60;;;;;;4955671;28;20081;-74
2022/03/21 00:08:24;;;;;;;9.95;6.25;;;8.20;26.70;;;;;;4955312;28;20034;-74
2022/03/21 00:10:51;;;;;;;10.68;6.45;;;8.20;26.70;;;;;;4955528;28;20397;-74
2022/03/21 00:13:17;;;;;;;10.43;5.80;;;8.20;26.70;;;;;;4955575;28;20031;-75
2022/03/21 00:15:44;;;;;;;10.70;6.57;;;8.10;26.70;;;;;;4955550;28;20048;-74
2022/03/21 00:18:16;;;;;;;11.35;5.97;;;8.10;26.70;;;;;;4955303;28;20036;-75
2022/03/21 00:20:56;;;;;;;10.00;5.45;;;8.10;26.70;;;;;;4955297;28;20030;-74
2022/03/21 00:23:23;;;;;;;10.45;6.78;;;8.10;26.60;;;;;;4954898;28;20023;-74
2022/03/21 00:25:50;;;;;;;12.98;5.68;;;8.10;26.60;;;;;;4955834;28;20042;-74
2022/03/21 00:28:17;;;;;;;9.70;5.93;;;8.10;26.70;;;;;;4955409;28;20027;-74
2022/03/21 00:30:43;;;;;;;11.63;5.97;;;8.00;26.60;;;;;;4955273;28;20078;-74
2022/03/21 00:33:10;;;;;;;7.88;5.22;;;8.00;26.70;;;;;;4954707;28;20023;-74
2022/03/21 00:35:36;;;;;;;10.45;5.80;;;8.00;26.70;;;;;;4955097;29;20019;-74
2022/03/21 00:38:04;;;;;;;11.77;5.97;;;8.00;26.70;;;;;;4954666;28;20121;-74
2022/03/21 00:40:29;;;;;;;10.77;5.10;;;7.90;26.70;;;;;;4955244;28;20205;-74
2022/03/21 00:42:56;;;;;;;8.25;5.68;;;7.90;26.70;;;;;;4955130;28;20038;-74
2022/03/21 00:45:27;;;;;;;7.57;5.50;;;7.90;26.70;;;;;;4955285;28;20029;-73
2022/03/21 00:47:54;;;;;;;9.25;5.13;;;7.90;26.70;;;;;;4954792;28;20437;-73
2022/03/21 00:50:22;;;;;;;8.55;5.07;;;7.80;26.70;;;;;;4954505;28;20054;-74
2022/03/21 00:52:51;;;;;;;9.55;5.78;;;7.90;26.80;;;;;;4969616;28;20039;-73
2022/03/21 00:55:19;;;;;;;8.20;5.38;;;7.80;26.90;;;;;;4951635;29;20090;-74
2022/03/21 00:57:45;;;;;;;10.30;5.93;;;7.80;26.90;;;;;;4954991;29;20071;-74
2022/03/21 01:00:15;;;;;;;11.85;5.57;;;7.80;26.90;;;;;;4954406;28;20062;-74
2022/03/21 01:02:41;;;;;;;8.23;5.22;;;7.80;26.90;;;;;;4954818;28;20082;-74
2022/03/21 01:05:07;;;;;;;9.13;5.32;;;7.80;26.90;;;;;;4954230;28;20255;-74
2022/03/21 01:07:34;;;;;;;12.45;5.57;;;7.80;26.80;;;;;;4954387;28;20031;-74
2022/03/21 01:10:00;;;;;;;10.10;5.85;;;7.80;26.70;;;;;;4954697;28;20031;-74
2022/03/21 01:12:27;;;;;;;10.00;5.60;;;7.80;26.70;;;;;;4954523;28;20027;-74
2022/03/21 01:14:54;;;;;;;9.52;5.28;;;7.70;26.70;;;;;;4954683;28;20058;-74
2022/03/21 01:17:19;;;;;;;8.52;5.50;;;7.70;26.60;;;;;;4954517;28;20525;-73
2022/03/21 01:19:45;;;;;;;10.90;5.68;;;7.70;26.50;;;;;;4954629;28;20039;-74
2022/03/21 01:22:11;;;;;;;9.75;5.22;;;7.70;26.50;;;;;;4954264;28;20027;-74
2022/03/21 01:24:38;;;;;;;8.77;5.47;;;7.70;26.50;;;;;;4954485;28;20163;-73
2022/03/21 01:27:04;;;;;;;10.65;6.00;;;7.70;26.50;;;;;;4954761;28;20019;-74
2022/03/21 01:29:30;;;;;;;11.25;5.70;;;7.70;26.50;;;;;;4954225;28;20039;-74
2022/03/21 01:31:56;;;;;;;9.38;6.05;;;7.70;26.50;;;;;;4954476;28;20401;-75
2022/03/21 01:34:22;;;;;;;11.68;5.93;;;7.60;26.50;;;;;;4954449;28;20106;-74
2022/03/21 01:36:48;;;;;;;10.18;5.38;;;7.60;26.50;;;;;;4954481;28;20400;-74
2022/03/21 01:39:14;;;;;;;8.20;5.18;;;7.60;26.50;;;;;;4954361;28;20027;-74
2022/03/21 01:41:39;;;;;;;8.43;4.82;;;7.70;26.50;;;;;;4954289;28;20027;-74
2022/03/21 01:44:07;;;;;;;10.48;5.05;;;7.70;26.50;;;;;;4954390;28;20066;-74
2022/03/21 01:46:35;;;;;;;17.33;6.40;;;7.60;26.50;;;;;;4954277;28;20028;-75
2022/03/21 01:49:04;;;;;;;8.45;5.10;;;7.60;26.40;;;;;;4968759;28;20135;-74
2022/03/21 01:51:30;;;;;;;11.23;5.72;;;7.60;26.40;;;;;;4954578;28;20035;-74
2022/03/21 01:56:43;;;;;;;8.10;4.78;;;7.60;26.40;;;;;;4954564;29;20034;-75
2022/03/21 01:59:10;;;;;;;11.48;5.35;;;7.60;26.40;;;;;;4953695;28;20099;-74
2022/03/21 02:01:38;;;;;;;7.90;5.15;;;7.60;26.40;;;;;;4954450;28;20363;-74
2022/03/21 02:04:04;;;;;;;13.02;5.05;;;7.60;26.30;;;;;;4952578;29;20106;-74
2022/03/21 02:06:30;;;;;;;9.15;5.05;;;7.50;26.30;;;;;;4954554;28;20449;-74
2022/03/21 02:08:57;;;;;;;11.55;5.57;;;7.60;26.30;;;;;;4954242;28;20366;-74
2022/03/21 02:11:27;;;;;;;8.63;4.93;;;7.50;26.30;;;;;;4953049;29;20070;-74
2022/03/21 02:13:58;;;;;;;8.23;5.20;;;7.50;26.30;;;;;;4945713;29;20422;-74
2022/03/21 02:16:25;;;;;;;9.15;5.30;;;7.50;26.30;;;;;;4953729;29;20503;-74
2022/03/21 02:18:52;;;;;;;9.25;5.65;;;7.50;26.20;;;;;;4956375;28;20035;-74
2022/03/21 02:21:24;;;;;;;10.40;5.38;;;7.50;26.30;;;;;;4957492;28;20482;-75
2022/03/21 02:24:06;;;;;;;10.80;5.57;;;7.40;26.30;;;;;;4957712;28;20094;-75
2022/03/21 02:26:32;;;;;;;7.97;4.68;;;7.40;26.20;;;;;;4960961;28;20023;-75
2022/03/21 02:28:59;;;;;;;8.18;5.28;;;7.40;26.30;;;;;;4957037;28;20094;-75
2022/03/21 02:31:26;;;;;;;10.90;5.28;;;7.40;26.40;;;;;;4955913;29;20549;-75
2022/03/21 02:33:53;;;;;;;9.18;5.05;;;7.30;26.30;;;;;;4957137;28;20470;-75
2022/03/21 02:36:20;;;;;;;8.65;5.15;;;7.30;26.30;;;;;;4957124;29;20030;-75
2022/03/21 02:38:46;;;;;;;8.77;5.13;;;7.30;26.40;;;;;;4957479;28;20066;-75
2022/03/21 02:41:15;;;;;;;11.30;5.38;;;7.20;26.40;;;;;;4957600;28;20023;-75
2022/03/21 02:43:58;;;;;;;8.38;5.38;;;7.20;26.40;;;;;;4957175;28;20074;-75
2022/03/21 02:46:25;;;;;;;9.10;4.90;;;7.20;26.40;;;;;;4956907;28;20038;-75
2022/03/21 02:48:56;;;;;;;7.43;4.57;;;7.20;26.40;;;;;;4957091;28;20110;-75
2022/03/21 02:51:25;;;;;;;9.75;5.40;;;7.10;26.50;;;;;;4957044;28;20429;-75
2022/03/21 02:53:51;;;;;;;7.60;5.10;;;7.10;26.30;;;;;;4956914;28;20030;-76
2022/03/21 02:56:20;;;;;;;9.88;5.47;;;7.10;26.40;;;;;;4957257;28;20358;-75
2022/03/21 02:58:47;;;;;;;8.68;4.68;;;7.10;26.40;;;;;;4956742;28;20043;-75
2022/03/21 03:01:17;;;;;;;8.45;5.18;;;7.10;26.50;;;;;;4956820;28;20094;-75
2022/03/21 03:03:44;;;;;;;10.05;5.20;;;7.00;26.40;;;;;;4956069;28;20027;-75
2022/03/21 03:06:11;;;;;;;8.25;4.95;;;7.00;26.40;;;;;;4955715;29;20053;-75
2022/03/21 03:08:38;;;;;;;8.80;4.97;;;7.00;26.50;;;;;;4956754;28;20389;-75
2022/03/21 03:11:04;;;;;;;10.13;5.53;;;7.00;26.60;;;;;;4956607;28;20376;-75
2022/03/21 03:13:30;;;;;;;10.45;5.32;;;7.00;26.50;;;;;;4956647;28;20031;-75
2022/03/21 03:15:56;;;;;;;9.13;5.18;;;7.00;26.40;;;;;;4956780;28;20023;-75
2022/03/21 03:18:22;;;;;;;8.07;4.80;;;7.00;26.50;;;;;;4956304;28;20035;-75
2022/03/21 03:20:53;;;;;;;11.63;5.05;;;6.90;26.40;;;;;;4954936;29;20135;-75
2022/03/21 03:23:20;;;;;;;8.43;4.88;;;6.90;26.50;;;;;;4955753;28;20069;-75
2022/03/21 03:25:57;;;;;;;8.02;4.95;;;6.90;26.40;;;;;;4956265;28;20051;-76
2022/03/21 03:28:23;;;;;;;12.15;4.78;;;6.90;26.50;;;;;;4946407;29;20045;-75
2022/03/21 03:30:50;;;;;;;8.10;5.07;;;6.90;26.60;;;;;;4955623;28;20122;-75
2022/03/21 03:33:16;;;;;;;18.92;5.30;;;6.90;26.60;;;;;;4956109;28;20070;-75
2022/03/21 03:35:41;;;;;;;11.38;5.53;;;6.90;26.50;;;;;;4970445;28;20055;-75
2022/03/21 03:38:08;;;;;;;8.30;4.57;;;6.80;26.70;;;;;;4955846;28;20039;-75
2022/03/21 03:40:33;;;;;;;7.55;4.85;;;6.80;26.60;;;;;;4956071;28;20118;-75
2022/03/21 03:42:59;;;;;;;9.93;5.20;;;6.80;26.60;;;;;;4970233;28;20114;-75
2022/03/21 03:45:25;;;;;;;8.98;4.60;;;6.80;26.60;;;;;;4956075;28;20474;-75
2022/03/21 03:47:52;;;;;;;8.70;5.50;;;6.70;26.70;;;;;;4955950;28;20027;-75
2022/03/21 03:50:19;;;;;;;8.45;5.05;;;6.80;26.70;;;;;;4956007;28;20035;-76
2022/03/21 03:52:46;;;;;;;8.20;5.00;;;6.70;26.70;;;;;;4970587;28;20042;-75
2022/03/21 03:55:17;;;;;;;8.55;4.63;;;6.70;26.60;;;;;;4955999;28;20024;-75
2022/03/21 03:57:44;;;;;;;9.95;5.68;;;6.70;26.60;;;;;;4955658;28;20559;-76
2022/03/21 04:00:11;;;;;;;7.70;5.25;;;6.70;26.60;;;;;;4954620;29;20396;-75
2022/03/21 04:05:21;;;;;;;10.90;4.88;;;6.70;26.80;;;;;;4955270;29;20027;-75
2022/03/21 04:07:49;;;;;;;8.65;4.95;;;6.70;26.70;;;;;;4963039;28;20035;-75
2022/03/21 04:10:15;;;;;;;11.57;5.10;;;6.70;26.70;;;;;;4955758;29;20385;-75
2022/03/21 04:12:43;;;;;;;8.85;4.80;;;6.70;26.80;;;;;;4955258;28;20024;-75
2022/03/21 04:15:10;;;;;;;8.93;4.63;;;6.60;26.80;;;;;;4955329;28;20033;-75
2022/03/21 04:17:36;;;;;;;8.13;4.97;;;6.60;26.80;;;;;;4954452;28;20023;-75
2022/03/21 04:20:06;;;;;;;17.50;5.15;;;6.60;26.80;;;;;;4966393;28;20371;-75
2022/03/21 04:22:34;;;;;;;17.73;5.65;;;6.60;26.90;;;;;;4955154;28;20041;-75
2022/03/21 04:25:00;;;;;;;10.68;4.93;;;6.50;26.90;;;;;;4955578;28;20031;-75
2022/03/21 04:27:26;;;;;;;10.10;4.65;;;6.50;27.00;;;;;;4955083;29;20034;-75
2022/03/21 04:29:52;;;;;;;10.18;4.80;;;6.60;27.00;;;;;;4955142;28;20043;-75
2022/03/21 04:32:18;;;;;;;10.15;4.43;;;6.50;27.10;;;;;;4955163;28;20050;-75
2022/03/21 04:34:43;;;;;;;9.20;4.82;;;6.50;27.00;;;;;;4954766;28;20041;-75
2022/03/21 04:37:10;;;;;;;6.75;4.53;;;6.50;26.90;;;;;;4954773;28;20027;-75
2022/03/21 04:39:35;;;;;;;11.88;5.20;;;6.50;27.00;;;;;;4954709;28;20035;-75
2022/03/21 04:42:01;;;;;;;8.73;4.63;;;6.50;27.30;;;;;;4954265;28;20501;-75
2022/03/21 04:44:27;;;;;;;7.35;4.35;;;6.50;27.20;;;;;;4954691;28;20028;-75
2022/03/21 04:46:53;;;;;;;8.48;4.40;;;6.40;27.10;;;;;;4970164;28;20042;-75
2022/03/21 04:49:19;;;;;;;8.52;4.60;;;6.40;27.10;;;;;;4953848;28;20054;-75
2022/03/21 04:51:44;;;;;;;8.88;4.75;;;6.40;27.10;;;;;;4954903;28;20035;-75
2022/03/21 04:54:10;;;;;;;10.25;4.78;;;6.40;27.30;;;;;;4954893;28;20504;-75
2022/03/21 04:56:36;;;;;;;9.68;4.30;;;6.30;27.20;;;;;;4954802;28;20028;-75
2022/03/21 04:59:02;;;;;;;9.27;4.65;;;6.30;27.30;;;;;;4954774;28;20047;-75
2022/03/21 05:01:28;;;;;;;7.68;4.22;;;6.30;27.30;;;;;;4953673;28;20163;-75
2022/03/21 05:03:55;;;;;;;9.07;4.80;;;6.20;27.40;;;;;;4953056;29;20152;-75
2022/03/21 05:06:20;;;;;;;8.50;4.53;;;6.20;27.40;;;;;;4969531;28;20034;-75
2022/03/21 05:08:46;;;;;;;6.93;4.07;;;6.20;27.50;;;;;;4969647;28;20389;-75
2022/03/21 05:11:12;;;;;;;10.98;4.88;;;6.10;27.50;;;;;;4969666;28;20035;-75
2022/03/21 05:13:38;;;;;;;9.18;5.15;;;6.10;27.60;;;;;;4953284;28;20046;-75
2022/03/21 05:16:05;;;;;;;13.73;5.65;;;6.10;27.70;;;;;;4939457;29;20038;-75
2022/03/21 05:18:34;;;;;;;11.80;5.82;;;6.10;27.80;;;;;;4954471;28;20027;-75
2022/03/21 05:21:04;;;;;;;9.68;5.20;;;6.00;27.90;;;;;;4954611;28;20078;-75
2022/03/21 05:31:44;;;;;;;;;;;6.00;28.00;;;;;;4954486;29;20033;-75
2022/03/21 05:36:54;;;;;;;11.38;5.68;;;6.10;27.90;;;;;;4941681;29;20385;-75
2022/03/21 05:39:22;;;;;;;8.00;4.68;;;6.10;28.00;;;;;;4954248;28;20031;-75
2022/03/21 05:41:51;;;;;;;10.85;5.40;;;6.10;28.20;;;;;;4954231;28;20019;-75
2022/03/21 05:44:17;;;;;;;11.98;5.30;;;6.20;28.40;;;;;;4954351;28;20489;-75
2022/03/21 05:46:42;;;;;;;9.68;4.80;;;6.20;28.80;;;;;;4954647;28;20113;-75
2022/03/21 05:49:08;;;;;;;14.90;4.47;;;6.20;28.20;;;;;;4953142;29;20175;-75
2022/03/21 05:51:37;;;;;;;13.23;4.95;;;6.30;28.20;;;;;;4954558;28;20024;-75
2022/03/21 05:54:08;;;;;;;8.57;5.03;;;6.30;28.30;;;;;;4956830;28;20062;-76
2022/03/21 05:56:35;;;;;;;10.40;4.82;;;6.30;28.20;;;;;;4958144;28;20027;-75
2022/03/21 06:01:47;;;;;;;9.30;4.32;;;6.50;28.20;;;;;;4957624;29;20496;-75
2022/03/21 06:04:14;;;;;;;11.05;4.32;;;6.60;28.10;;;;;;4957749;28;20440;-75
2022/03/21 06:06:41;;;;;;;9.65;4.97;;;6.60;28.10;;;;;;4958106;28;20023;-76
2022/03/21 06:09:07;;;;;;;9.00;4.55;;;6.70;28.10;;;;;;4972760;28;20030;-75
2022/03/21 06:11:34;;;;;;;9.95;4.43;;;6.80;28.30;;;;;;4957916;28;20031;-75
2022/03/21 06:14:00;;;;;;;7.22;3.85;;;6.80;28.50;;;;;;4972412;28;20393;-75
2022/03/21 06:16:26;;;;;;;7.97;4.10;;;6.90;28.70;;;;;;4957954;28;20098;-75
2022/03/21 06:18:52;;;;;;;10.05;5.40;;;7.00;28.90;;;;;;4957412;28;20058;-75
2022/03/21 06:21:18;;;;;;;7.82;4.95;;;7.00;29.00;;;;;;4957653;28;20031;-75
2022/03/21 06:23:43;;;;;;;7.53;3.95;;;7.10;29.20;;;;;;4957479;28;20027;-75
2022/03/21 06:26:09;;;;;;;8.25;4.35;;;7.20;29.20;;;;;;4972239;28;20045;-75
2022/03/21 06:28:36;;;;;;;8.80;3.97;;;7.30;29.20;;;;;;4957516;28;20106;-75
2022/03/21 06:31:02;;;;;;;8.70;3.90;;;7.40;29.20;;;;;;4957477;28;20550;-75
2022/03/21 06:33:29;;;;;;;8.95;5.22;;;7.40;29.10;;;;;;4955745;29;20409;-75
2022/03/21 06:35:57;;;;;;;11.60;4.72;;;7.50;29.00;;;;;;4957103;28;20099;-75
2022/03/21 06:38:23;;;;;;;12.00;5.25;;;7.60;28.80;;;;;;4957337;28;20034;-75
2022/03/21 06:40:49;;;;;;;13.05;6.95;;;7.70;28.60;;;;;;4957550;28;20038;-76
2022/03/21 06:43:15;;;;;;;23.63;10.07;;;7.70;28.50;;;;;;4956763;28;20038;-75
2022/03/21 06:45:42;;;;;;;25.30;9.38;;;7.80;28.40;;;;;;4957502;28;20024;-75
2022/03/21 06:48:09;;;;;;;12.13;6.63;;;7.90;28.40;;;;;;4957207;28;20027;-75
2022/03/21 06:50:35;;;;;;;14.13;6.45;;;8.00;28.30;;;;;;4971617;28;20023;-75
2022/03/21 06:53:01;;;;;;;11.93;6.22;;;8.10;28.10;;;;;;4956288;29;20023;-76
2022/03/21 06:55:27;;;;;;;15.57;6.32;;;8.20;28.00;;;;;;4957333;28;20027;-75
2022/03/21 06:57:53;;;;;;;14.98;5.80;;;8.30;27.90;;;;;;4971446;28;20351;-75
2022/03/21 07:00:19;;;;;;;15.48;7.43;;;8.30;27.80;;;;;;4955808;29;20392;-75
2022/03/21 07:02:45;;;;;;;19.48;8.52;;;8.50;27.90;;;;;;4957030;28;20035;-75
2022/03/21 07:05:11;;;;;;;19.27;9.18;;;8.50;27.70;;;;;;4955926;28;20062;-75
2022/03/21 07:07:37;;;;;;;21.95;8.27;;;8.60;27.50;;;;;;4956925;28;20031;-75
2022/03/21 07:10:09;;;;;;;17.90;8.75;;;8.70;27.60;;;;;;4957051;28;20028;-75
2022/03/21 07:12:35;;;;;;;17.23;7.40;;;8.80;27.50;;;;;;4957136;28;20481;-75
2022/03/21 07:15:02;;;;;;;16.58;7.60;;;8.90;27.40;;;;;;4956385;29;20536;-75
2022/03/21 07:17:28;;;;;;;13.57;6.93;;;8.90;27.30;;;;;;4956601;28;20027;-75
2022/03/21 07:19:54;;;;;;;20.13;7.07;;;9.00;27.20;;;;;;4956765;28;20039;-75
2022/03/21 07:22:20;;;;;;;14.07;6.05;;;9.10;27.20;;;;;;4956629;28;20473;-75
2022/03/21 07:24:46;;;;;;;25.10;7.93;;;9.10;27.00;;;;;;4956284;28;20409;-76
2022/03/21 07:27:14;;;;;;;17.45;8.13;;;9.20;26.90;;;;;;4971386;28;20038;-75
2022/03/21 07:29:40;;;;;;;19.50;7.43;;;9.30;26.60;;;;;;4956649;28;20039;-75
2022/03/21 07:32:07;;;;;;;19.88;7.95;;;9.30;26.60;;;;;;4956695;28;20031;-76
2022/03/21 07:34:33;;;;;;;18.63;6.95;;;9.40;26.70;;;;;;4955966;28;20102;-75
2022/03/21 07:36:58;;;;;;;15.52;7.07;;;9.50;26.70;;;;;;4956540;29;20102;-75
2022/03/21 07:39:24;;;;;;;22.50;7.75;;;9.60;26.40;;;;;;4956416;28;20034;-75
2022/03/21 07:41:51;;;;;;;15.00;6.47;;;9.60;26.30;;;;;;4971114;28;20031;-75
2022/03/21 07:47:17;;;;;;;20.50;7.90;;;9.70;26.40;;;;;;4956153;28;20106;-75
2022/03/21 07:47:20;;;;;;;26.15;7.80;;;9.80;26.30;;;;;;4955445;29;20135;-75
2022/03/21 07:49:48;;;;;;;16.77;7.20;;;9.80;26.20;;;;;;4955676;29;20030;-75
2022/03/21 07:52:17;;;;;;;16.60;6.85;;;9.90;26.20;;;;;;4956200;28;20043;-75
2022/03/21 07:54:43;;;;;;;15.35;7.57;;;10.00;26.20;;;;;;4956235;28;20028;-75
2022/03/21 07:57:08;;;;;;;16.42;7.45;;;10.10;26.00;;;;;;4971002;28;20027;-75
2022/03/21 07:59:35;;;;;;;17.67;7.38;;;10.10;25.70;;;;;;4970669;28;20047;-75
2022/03/21 08:02:04;;;;;;;17.50;8.15;;;10.20;25.80;;;;;;4970780;28;20047;-76
2022/03/21 08:04:31;;;;;;;15.00;7.47;;;10.20;25.80;;;;;;4955378;28;20031;-75
2022/03/21 08:06:58;;;;;;;18.70;8.50;;;10.30;25.90;;;;;;4955909;28;20015;-75
2022/03/21 08:09:30;;;;;;;20.45;7.90;;;10.40;25.80;;;;;;4970630;28;20063;-75
2022/03/21 08:12:02;;;;;;;17.35;7.43;;;10.40;25.50;;;;;;4955699;28;20038;-75
2022/03/21 08:14:28;;;;;;;20.63;7.35;;;10.50;25.50;;;;;;4955647;28;20107;-75
2022/03/21 08:16:54;;;;;;;14.77;7.28;;;10.60;25.40;;;;;;4955251;28;20109;-75
2022/03/21 08:19:24;;;;;;;27.30;9.38;;;10.70;25.40;;;;;;4955480;28;20031;-75
2022/03/21 08:21:53;;;;;;;21.02;7.57;;;10.70;25.20;;;;;;4970965;28;20375;-75
2022/03/21 08:24:20;;;;;;;18.10;7.80;;;10.80;25.20;;;;;;4955356;28;20138;-75
2022/03/21 08:26:46;;;;;;;16.63;7.43;;;10.90;25.00;;;;;;4955644;28;20055;-75
2022/03/21 08:29:12;;;;;;;17.90;6.95;;;10.90;24.80;;;;;;4955486;28;20082;-75
2022/03/21 08:31:38;;;;;;;16.77;7.35;;;11.00;24.90;;;;;;4970218;28;20478;-75
2022/03/21 08:34:04;;;;;;;18.98;8.00;;;11.10;24.90;;;;;;4953894;29;20398;-75
2022/03/21 08:36:30;;;;;;;24.33;9.57;;;11.10;25.00;;;;;;4955065;28;20027;-75
2022/03/21 08:38:56;;;;;;;17.58;8.35;;;11.10;24.80;;;;;;4955354;29;20363;-75
2022/03/21 08:41:22;;;;;;;15.93;8.32;;;11.20;24.80;;;;;;4955467;28;20031;-75
2022/03/21 08:43:48;;;;;;;16.98;7.20;;;11.30;24.90;;;;;;4955622;28;20106;-75
2022/03/21 08:46:15;;;;;;;21.65;8.35;;;11.30;24.90;;;;;;4955037;28;20543;-75
2022/03/21 08:51:25;;;;;;;27.63;8.77;;;11.50;24.50;;;;;;4954503;29;20058;-75
2022/03/21 08:53:52;;;;;;;23.60;8.23;;;11.60;24.60;;;;;;4954770;28;20035;-75
2022/03/21 08:56:18;;;;;;;13.27;6.43;;;11.60;24.60;;;;;;4955227;28;20497;-76
2022/03/21 08:58:44;;;;;;;20.92;7.13;;;11.70;24.50;;;;;;4954716;28;20171;-75
2022/03/21 09:01:13;;;;;;;18.50;7.28;;;11.80;24.40;;;;;;4953430;29;20405;-75
2022/03/21 09:03:38;;;;;;;16.63;7.60;;;11.80;24.30;;;;;;4954337;28;20027;-75
2022/03/21 09:06:04;;;;;;;25.65;7.75;;;11.90;24.40;;;;;;4954786;29;20378;-76
2022/03/21 09:08:31;;;;;;;24.88;9.02;;;12.00;24.40;;;;;;4954710;28;20038;-75
2022/03/21 09:10:56;;;;;;;18.27;8.23;;;12.00;24.20;;;;;;4954815;28;20029;-76
2022/03/21 09:13:23;;;;;;;19.80;8.80;;;12.10;24.20;;;;;;4954708;28;20114;-75
2022/03/21 09:15:49;;;;;;;11.60;6.80;;;12.20;24.10;;;;;;4954374;29;20503;-76
2022/03/21 09:18:15;;;;;;;21.17;8.57;;;12.20;24.20;;;;;;4954394;28;20035;-76
2022/03/21 09:20:40;;;;;;;37.90;10.77;;;12.30;24.10;;;;;;4954500;28;20027;-75
2022/03/21 09:23:07;;;;;;;23.15;7.38;;;12.30;23.80;;;;;;4954585;28;20381;-75
2022/03/21 09:25:34;;;;;;;25.45;7.28;;;12.40;23.70;;;;;;4954991;28;20501;-73
2022/03/21 09:28:00;;;;;;;17.98;6.80;;;12.40;23.60;;;;;;4956836;28;20031;-73
2022/03/21 09:30:25;;;;;;;17.75;5.97;;;12.50;23.80;;;;;;4959732;29;20433;-73
2022/03/21 09:32:51;;;;;;;13.63;6.63;;;12.60;23.80;;;;;;4960713;28;20058;-74
2022/03/21 09:35:17;;;;;;;20.00;7.03;;;12.60;23.70;;;;;;4960358;28;20042;-73
2022/03/21 09:37:43;;;;;;;24.83;7.10;;;12.70;23.70;;;;;;4960510;28;20094;-75
2022/03/21 09:40:10;;;;;;;19.60;6.00;;;12.80;23.70;;;;;;4961049;28;20027;-73
2022/03/21 09:42:36;;;;;;;11.10;5.75;;;12.80;23.20;;;;;;4975783;28;20027;-75
2022/03/21 09:45:03;;;;;;;16.77;5.93;;;12.90;23.30;;;;;;4976129;28;20155;-76
2022/03/21 09:50:15;;;;;;;10.43;5.43;;;13.00;22.60;;;;;;4960955;29;20063;-75
2022/03/21 09:52:41;;;;;;;24.02;5.28;;;13.10;22.50;;;;;;4968296;28;20036;-76
2022/03/21 09:55:08;;;;;;;10.93;4.88;;;13.10;22.70;;;;;;4957653;29;20031;-76
2022/03/21 09:57:35;;;;;;;9.25;5.40;;;13.20;22.80;;;;;;4960259;28;20363;-75
2022/03/21 10:00:02;;;;;;;17.33;4.95;;;13.30;22.70;;;;;;4960135;28;20042;-75
2022/03/21 10:02:28;;;;;;;11.15;5.60;;;13.30;22.60;;;;;;4960183;28;20023;-75
2022/03/21 10:04:54;;;;;;;9.15;4.68;;;13.40;22.40;;;;;;4952057;28;20359;-75
2022/03/21 10:07:27;;;;;;;12.20;5.72;;;13.40;22.30;;;;;;4975606;28;20106;-76
2022/03/21 10:10:07;;;;;;;10.00;4.18;;;13.50;22.20;;;;;;4960365;28;20035;-75
2022/03/21 10:12:34;;;;;;;8.80;4.40;;;13.60;22.30;;;;;;4960650;28;20023;-76
2022/03/21 10:15:03;;;;;;;8.18;4.72;;;13.70;22.30;;;;;;4960892;28;20075;-75
2022/03/21 10:17:29;;;;;;;10.30;4.90;;;13.70;22.10;;;;;;4960658;28;20047;-76
2022/03/21 10:19:55;;;;;;;15.27;5.53;;;13.80;21.70;;;;;;4960205;28;20137;-75
2022/03/21 10:22:44;;;;;;;9.10;5.03;;;13.80;21.60;;;;;;4960433;28;20038;-74
2022/03/21 10:25:15;;;;;;;10.82;4.75;;;13.90;21.70;;;;;;4941692;29;20093;-73
2022/03/21 10:27:43;;;;;;;10.55;4.90;;;14.00;21.40;;;;;;4956834;29;20019;-74
2022/03/21 10:30:12;;;;;;;8.48;4.47;;;14.10;21.30;;;;;;4960329;28;20034;-74
2022/03/21 10:32:58;;;;;;;7.85;4.07;;;14.10;21.40;;;;;;4963642;28;20113;-75
2022/03/21 10:35:31;;;;;;;10.40;4.65;;;14.20;21.40;;;;;;4958578;29;20126;-74
2022/03/21 10:38:02;;;;;;;10.20;4.13;;;14.30;21.40;;;;;;4960377;28;20031;-74
2022/03/21 10:40:30;;;;;;;10.40;4.78;;;14.30;21.30;;;;;;4957744;28;20067;-73
2022/03/21 10:43:03;;;;;;;6.72;4.47;;;14.40;21.40;;;;;;4957430;28;20023;-73
2022/03/21 10:45:34;;;;;;;8.70;4.78;;;14.40;21.00;;;;;;4957448;28;20027;-73
2022/03/21 10:48:04;;;;;;;7.72;3.95;;;14.50;20.80;;;;;;4957258;28;20038;-73
2022/03/21 10:50:32;;;;;;;6.00;4.25;;;14.50;20.80;;;;;;4956961;28;20207;-73
2022/03/21 10:53:19;;;;;;;6.45;4.10;;;14.60;20.80;;;;;;4971750;28;20040;-74
2022/03/21 10:55:49;;;;;;;9.38;4.28;;;14.70;21.10;;;;;;4956889;28;20031;-74
2022/03/21 10:58:17;;;;;;;8.23;4.40;;;14.80;21.20;;;;;;4947723;29;20043;-74
2022/03/21 11:00:44;;;;;;;9.48;4.20;;;14.80;21.10;;;;;;4955327;28;20035;-74
2022/03/21 11:03:16;;;;;;;6.05;3.58;;;14.90;20.60;;;;;;4972085;28;20349;-74
2022/03/21 11:05:48;;;;;;;8.32;4.55;;;14.90;20.50;;;;;;4956210;28;20034;-74
2022/03/21 11:08:16;;;;;;;6.40;3.45;;;15.00;20.20;;;;;;4956805;28;20359;-74
2022/03/21 11:10:43;;;;;;;6.40;4.13;;;15.00;20.40;;;;;;4955985;28;20148;-74
2022/03/21 11:13:10;;;;;;;14.93;4.43;;;15.10;20.20;;;;;;4971407;28;20114;-74
2022/03/21 11:15:37;;;;;;;13.02;4.00;;;15.10;19.90;;;;;;4956944;28;20027;-74
2022/03/21 11:18:07;;;;;;;6.53;4.30;;;15.20;20.20;;;;;;4956979;28;20027;-75
2022/03/21 11:20:33;;;;;;;5.95;3.92;;;15.20;19.70;;;;;;4950941;28;20031;-74
2022/03/21 11:23:01;;;;;;;8.63;3.65;;;15.30;19.80;;;;;;4952253;29;20031;-74
2022/03/21 11:25:32;;;;;;;8.27;4.50;;;15.30;19.50;;;;;;4955208;28;20031;-74
2022/03/21 11:28:19;;;;;;;5.95;4.03;;;15.40;19.40;;;;;;4956117;28;20102;-74
2022/03/21 11:31:29;;;;;;;5.93;3.83;;;15.40;18.80;;;;;;4965970;28;20027;-74
2022/03/21 11:34:33;;;;;;;12.32;4.10;;;15.50;19.20;;;;;;4955364;29;20082;-74
2022/03/21 11:36:59;;;;;;;6.35;3.97;;;15.60;19.20;;;;;;4965562;28;20098;-74
2022/03/21 11:39:26;;;;;;;7.13;3.83;;;15.60;19.00;;;;;;4961428;28;20022;-74
2022/03/21 11:41:56;;;;;;;6.40;3.95;;;15.70;18.70;;;;;;4952648;29;20477;-74
2022/03/21 11:44:21;;;;;;;6.00;3.50;;;15.70;18.80;;;;;;4956244;28;20063;-74
2022/03/21 11:46:47;;;;;;;7.43;3.53;;;15.80;19.10;;;;;;4956493;28;20051;-74
2022/03/21 11:49:19;;;;;;;7.93;3.88;;;15.90;19.10;;;;;;4955635;29;20023;-74
2022/03/21 11:51:58;;;;;;;5.78;3.50;;;15.90;18.60;;;;;;4955936;28;20027;-74
2022/03/21 11:54:36;;;;;;;11.80;3.55;;;15.90;18.50;;;;;;4937216;29;20043;-73
2022/03/21 11:57:02;;;;;;;6.47;3.78;;;16.00;17.80;;;;;;4940295;29;20496;-74
2022/03/21 11:59:34;;;;;;;7.57;3.80;;;16.00;18.10;;;;;;4954023;28;20047;-74
2022/03/21 12:02:22;;;;;;;5.35;3.20;;;16.10;17.90;;;;;;4963791;28;20028;-74
2022/03/21 12:04:59;;;;;;;4.47;2.60;;;16.10;18.00;;;;;;4954325;29;20422;-74
2022/03/21 12:07:25;;;;;;;4.85;3.25;;;16.20;17.90;;;;;;4970966;28;20079;-74
2022/03/21 12:09:52;;;;;;;5.25;3.35;;;16.20;17.60;;;;;;4955772;28;20410;-74
2022/03/21 12:12:20;;;;;;;6.50;4.03;;;16.20;17.80;;;;;;4955771;28;20486;-74
2022/03/21 12:14:47;;;;;;;7.10;3.35;;;16.30;17.50;;;;;;4955113;28;20031;-74
2022/03/21 12:17:12;;;;;;;5.18;3.47;;;16.30;17.40;;;;;;4954900;28;20082;-73
2022/03/21 12:19:51;;;;;;;6.45;3.28;;;16.40;17.40;;;;;;4949274;29;20422;-73
2022/03/21 12:22:36;;;;;;;6.70;3.45;;;16.40;17.30;;;;;;4952847;29;20416;-74
2022/03/21 12:25:08;;;;;;;6.18;3.70;;;16.50;17.60;;;;;;4950991;28;20019;-74
2022/03/21 12:27:49;;;;;;;5.88;3.15;;;16.50;17.40;;;;;;4954783;29;20030;-74
2022/03/21 12:30:30;;;;;;;12.23;3.42;;;16.50;16.80;;;;;;4955531;29;20054;-74
2022/03/21 12:33:27;;;;;;;3.83;2.97;;;16.60;17.00;;;;;;4970421;28;20517;-74
2022/03/21 12:35:56;;;;;;;10.93;2.80;;;16.60;16.90;;;;;;4954773;28;20174;-73
2022/03/21 12:38:32;;;;;;;5.22;3.30;;;16.60;17.00;;;;;;4952851;28;20392;-74
2022/03/21 12:41:02;;;;;;;7.55;3.70;;;16.70;17.30;;;;;;4936315;29;20032;-74
2022/03/21 12:43:29;;;;;;;4.28;3.22;;;16.70;17.00;;;;;;4937758;29;20035;-74
2022/03/21 12:46:06;;;;;;;9.20;3.63;;;16.80;16.90;;;;;;4955358;28;20035;-74
2022/03/21 12:48:34;;;;;;;9.90;3.80;;;16.80;16.50;;;;;;4954834;28;20519;-74
2022/03/21 12:51:01;;;;;;;3.53;2.83;;;16.80;16.20;;;;;;4959289;28;20091;-74
2022/03/21 12:53:48;;;;;;;9.65;3.60;;;16.90;16.40;;;;;;4967214;28;20027;-74
2022/03/21 12:56:19;;;;;;;4.72;3.10;;;16.90;16.30;;;;;;4946979;29;20039;-74
2022/03/21 12:58:47;;;;;;;5.55;3.28;;;17.00;16.60;;;;;;4955008;28;20059;-74
2022/03/21 13:01:18;;;;;;;4.70;3.15;;;17.00;16.40;;;;;;4969433;28;20034;-74
2022/03/21 13:03:44;;;;;;;3.97;3.00;;;17.00;16.40;;;;;;4953937;28;20027;-74
2022/03/21 13:11:38;;;;;;;7.75;2.97;;;17.10;16.80;;;;;;4950734;28;19906;-73
2022/03/21 13:14:06;;;;;;;5.93;3.38;;;17.20;15.40;;;;;;4950909;28;20020;-74
2022/03/21 13:16:38;;;;;;;7.60;3.30;;;17.20;15.40;;;;;;4950034;28;20019;-73
2022/03/21 13:19:08;;;;;;;7.57;3.10;;;17.20;15.40;;;;;;4950460;28;20126;-73
2022/03/21 13:21:37;;;;;;;3.28;2.50;;;17.30;15.70;;;;;;4950202;28;20034;-73
2022/03/21 13:24:03;;;;;;;4.22;2.58;;;17.30;15.60;;;;;;4954807;28;20480;-73